createdAt,value
2023-03-13T00:03:49.902Z,11.20
2023-03-13T00:10:08.733Z,11.30
2023-03-13T00:16:27.809Z,11.40
2023-03-13T00:22:22.255Z,11.50
2023-03-13T00:28:16.747Z,11.50
2023-03-13T00:34:47.227Z,11.60
2023-03-13T00:41:09.418Z,11.70
2023-03-13T00:47:05.429Z,11.80
2023-03-13T00:52:59.925Z,11.90
2023-03-13T00:59:18.398Z,12.00
2023-03-13T01:05:36.757Z,12.00
2023-03-13T01:11:31.860Z,12.10
2023-03-13T01:17:26.399Z,12.10
2023-03-13T01:23:44.898Z,12.10
2023-03-13T01:30:03.364Z,12.20
2023-03-13T01:36:04.034Z,12.20
2023-03-13T01:41:58.532Z,12.30
2023-03-13T01:48:17.139Z,12.40
2023-03-13T01:54:55.473Z,12.50
2023-03-13T02:00:49.883Z,12.50
2023-03-13T02:06:44.942Z,12.50
2023-03-13T02:13:03.476Z,12.60
2023-03-13T02:19:28.340Z,12.70
2023-03-13T02:25:30.225Z,12.70
2023-03-13T02:31:24.822Z,12.80
2023-03-13T02:37:57.623Z,12.90
2023-03-13T02:44:16.056Z,12.90
2023-03-13T02:50:11.405Z,12.90
2023-03-13T02:56:06.457Z,13.00
2023-03-13T03:02:25.145Z,13.10
2023-03-13T03:08:44.010Z,13.10
2023-03-13T03:14:38.358Z,13.10
2023-03-13T03:20:32.903Z,13.10
2023-03-13T03:26:51.467Z,13.20
2023-03-13T03:33:09.840Z,13.20
2023-03-13T03:39:05.358Z,13.20
2023-03-13T03:44:59.886Z,13.30
2023-03-13T03:51:18.361Z,13.30
2023-03-13T03:57:36.730Z,13.40
2023-03-13T04:03:31.340Z,13.40
2023-03-13T04:09:25.927Z,13.50
2023-03-13T04:15:44.463Z,13.50
2023-03-13T04:22:02.961Z,13.60
2023-03-13T04:27:57.331Z,13.60
2023-03-13T04:33:52.306Z,13.60
2023-03-13T04:40:22.853Z,13.60
2023-03-13T04:46:41.224Z,13.70
2023-03-13T04:52:35.593Z,13.70
2023-03-13T04:58:30.098Z,13.70
2023-03-13T05:04:50.159Z,13.70
2023-03-13T05:11:10.159Z,13.70
2023-03-13T05:17:04.545Z,13.80
2023-03-13T05:22:59.063Z,13.80
2023-03-13T05:29:17.591Z,13.80
2023-03-13T05:35:35.960Z,13.70
2023-03-13T05:41:31.364Z,13.50
2023-03-13T05:47:25.850Z,13.50
2023-03-13T05:53:44.567Z,13.30
2023-03-13T06:00:03.477Z,13.20
2023-03-13T06:05:58.378Z,13.00
2023-03-13T06:11:52.899Z,12.90
2023-03-13T06:18:11.378Z,12.80
2023-03-13T06:24:29.751Z,12.70
2023-03-13T06:30:24.136Z,12.70
2023-03-13T06:36:18.635Z,12.70
2023-03-13T06:42:49.138Z,12.70
2023-03-13T06:49:07.561Z,12.80
2023-03-13T06:55:01.924Z,12.80
2023-03-13T07:00:56.563Z,12.80
2023-03-13T07:07:29.421Z,12.90
2023-03-13T07:13:49.806Z,12.90
2023-03-13T07:19:44.176Z,13.00
2023-03-13T07:25:38.686Z,13.00
2023-03-13T07:31:57.311Z,13.20
2023-03-13T07:38:15.805Z,13.50
2023-03-13T07:44:10.607Z,13.60
2023-03-13T07:50:05.634Z,13.70
2023-03-13T07:56:24.485Z,13.80
2023-03-13T08:02:42.951Z,13.90
2023-03-13T08:08:37.472Z,13.90
2023-03-13T08:14:32.022Z,13.90
2023-03-13T08:20:50.561Z,14.30
2023-03-13T08:27:08.919Z,14.30
2023-03-13T08:33:04.878Z,14.40
2023-03-13T08:39:02.327Z,14.40
2023-03-13T08:45:32.813Z,14.50
2023-03-13T08:51:51.346Z,14.70
2023-03-13T08:57:46.712Z,14.90
2023-03-13T09:03:41.579Z,14.90
2023-03-13T09:10:00.204Z,15.00
2023-03-13T09:16:22.194Z,15.10
2023-03-13T09:22:16.658Z,15.30
2023-03-13T09:28:11.160Z,15.20
2023-03-13T09:34:29.620Z,15.20
2023-03-13T09:41:04.895Z,15.80
2023-03-13T09:47:01.984Z,15.40
2023-03-13T09:52:59.602Z,15.40
2023-03-13T09:59:34.385Z,15.30
2023-03-13T10:05:53.320Z,15.20
2023-03-13T10:11:53.386Z,15.40
2023-03-13T10:17:47.977Z,15.30
2023-03-13T10:24:14.522Z,15.20
2023-03-13T10:30:35.454Z,15.40
2023-03-13T10:36:29.838Z,15.40
2023-03-13T10:42:28.083Z,15.40
2023-03-13T10:49:01.589Z,15.80
2023-03-13T10:55:20.768Z,15.90
2023-03-13T11:01:22.426Z,16.00
2023-03-13T11:07:21.849Z,16.20
2023-03-13T11:13:42.974Z,16.20
2023-03-13T11:20:01.369Z,16.60
2023-03-13T11:26:02.825Z,16.80
2023-03-13T11:31:59.156Z,16.70
2023-03-13T11:38:21.135Z,16.50
2023-03-13T11:44:44.740Z,16.10
2023-03-13T11:50:57.871Z,15.90
2023-03-13T11:57:15.993Z,16.10
2023-03-13T12:04:01.773Z,16.10
2023-03-13T12:10:46.697Z,16.10
2023-03-13T12:17:01.143Z,15.80
2023-03-13T12:22:55.625Z,16.00
2023-03-13T12:29:41.100Z,16.20
2023-03-13T12:36:02.891Z,16.20
2023-03-13T12:42:17.608Z,15.80
2023-03-13T12:48:27.939Z,15.50
2023-03-13T12:55:14.169Z,16.00
2023-03-13T13:01:56.526Z,16.30
2023-03-13T13:07:54.945Z,15.70
2023-03-13T13:13:49.544Z,15.50
2023-03-13T13:20:27.000Z,15.80
2023-03-13T13:26:48.847Z,15.50
2023-03-13T13:32:43.440Z,15.60
2023-03-13T13:38:44.288Z,15.70
2023-03-13T13:45:15.030Z,15.70
2023-03-13T13:51:37.932Z,16.00
2023-03-13T13:57:34.037Z,16.10
2023-03-13T14:03:31.791Z,16.30
2023-03-13T14:09:55.253Z,16.30
2023-03-13T14:16:26.064Z,16.40
2023-03-13T14:22:22.824Z,16.80
2023-03-13T14:28:23.592Z,17.00
2023-03-13T14:34:42.083Z,17.30
2023-03-13T14:41:00.536Z,16.80
2023-03-13T14:46:55.706Z,17.10
2023-03-13T14:53:05.586Z,16.60
2023-03-13T14:59:36.302Z,16.40
2023-03-13T15:06:07.968Z,16.40
2023-03-13T15:12:02.661Z,16.40
2023-03-13T15:17:57.170Z,16.50
2023-03-13T15:24:16.067Z,16.50
2023-03-13T15:30:34.462Z,16.30
2023-03-13T15:36:30.058Z,16.20
2023-03-13T15:42:25.418Z,16.30
2023-03-13T15:48:44.100Z,16.10
2023-03-13T15:55:02.763Z,16.20
2023-03-13T16:00:57.357Z,15.70
2023-03-13T16:06:51.898Z,15.70
2023-03-13T16:13:12.796Z,15.80
2023-03-13T16:21:24.180Z,15.80
2023-03-13T16:27:18.914Z,15.60
2023-03-13T16:33:13.477Z,15.40
2023-03-13T16:39:36.664Z,15.30
2023-03-13T16:45:55.136Z,15.30
2023-03-13T16:51:49.561Z,15.10
2023-03-13T16:57:44.021Z,14.90
2023-03-13T17:04:14.614Z,14.90
2023-03-13T17:10:33.164Z,15.00
2023-03-13T17:16:33.107Z,14.70
2023-03-13T17:22:30.261Z,14.60
2023-03-13T17:28:50.029Z,14.50
2023-03-13T17:35:09.168Z,14.40
2023-03-13T17:41:03.606Z,14.30
2023-03-13T17:46:59.190Z,14.10
2023-03-13T17:53:20.209Z,14.00
2023-03-13T17:59:38.602Z,13.90
2023-03-13T18:05:32.982Z,13.80
2023-03-13T18:11:29.754Z,13.60
2023-03-13T18:17:48.484Z,13.60
2023-03-13T18:24:08.199Z,13.60
2023-03-13T18:30:02.629Z,13.50
2023-03-13T18:35:57.261Z,13.40
2023-03-13T18:42:16.278Z,13.30
2023-03-13T18:48:34.670Z,13.20
2023-03-13T18:54:30.218Z,13.10
2023-03-13T19:00:26.663Z,13.00
2023-03-13T19:06:57.256Z,12.90
2023-03-13T19:13:15.865Z,12.90
2023-03-13T19:19:17.879Z,12.80
2023-03-13T19:25:12.665Z,12.60
2023-03-13T19:31:32.477Z,12.60
2023-03-13T19:37:51.104Z,12.60
2023-03-13T19:43:47.893Z,12.50
2023-03-13T19:49:45.982Z,12.50
2023-03-13T19:56:33.382Z,12.50
2023-03-13T20:02:57.548Z,12.50
2023-03-13T20:08:55.571Z,12.40
2023-03-13T20:14:50.094Z,12.30
2023-03-13T20:21:08.698Z,12.40
2023-03-13T20:27:27.478Z,12.40
2023-03-13T20:33:22.646Z,12.50
2023-03-13T20:39:17.179Z,12.40
2023-03-13T20:45:38.017Z,12.40
2023-03-13T20:51:56.451Z,12.50
2023-03-13T20:57:50.876Z,12.40
2023-03-13T21:03:45.566Z,12.40
2023-03-13T21:10:18.181Z,12.50
2023-03-13T21:16:37.706Z,12.60
2023-03-13T21:22:32.112Z,12.70
2023-03-13T21:28:27.851Z,12.20
2023-03-13T21:34:47.964Z,12.20
2023-03-13T21:41:16.706Z,12.20
2023-03-13T21:47:11.248Z,12.00
2023-03-13T21:53:05.785Z,11.90
2023-03-13T21:59:26.300Z,11.80
2023-03-13T22:05:44.762Z,11.70
2023-03-13T22:11:39.181Z,11.60
2023-03-13T22:17:33.674Z,11.50
2023-03-13T22:23:52.150Z,11.40
2023-03-13T22:30:10.988Z,11.40
2023-03-13T22:36:05.666Z,11.20
2023-03-13T22:42:00.308Z,11.20
2023-03-13T22:48:18.842Z,11.20
2023-03-13T22:54:37.250Z,11.20
2023-03-13T23:00:32.247Z,11.10
2023-03-13T23:06:26.809Z,11.10
2023-03-13T23:12:57.379Z,11.20
2023-03-13T23:19:15.746Z,11.30
2023-03-13T23:25:10.745Z,11.20
2023-03-13T23:31:11.532Z,11.10
2023-03-13T23:37:30.672Z,11.10
2023-03-13T23:43:49.139Z,11.10
2023-03-13T23:49:43.523Z,10.90
2023-03-13T23:55:38.010Z,10.80
